createdAt,value
2023-06-11T00:00:08.041Z,1004.35
2023-06-11T00:01:08.013Z,1004.35
2023-06-11T00:02:08.115Z,1004.35
2023-06-11T00:03:08.109Z,1004.35
2023-06-11T00:04:08.130Z,1004.34
2023-06-11T00:05:08.158Z,1004.33
2023-06-11T00:06:07.965Z,1004.33
2023-06-11T00:07:07.948Z,1004.33
2023-06-11T00:08:08.041Z,1004.32
2023-06-11T00:09:07.933Z,1004.32
2023-06-11T00:10:07.956Z,1004.32
2023-06-11T00:11:07.906Z,1004.33
2023-06-11T00:12:07.910Z,1004.33
2023-06-11T00:13:07.894Z,1004.34
2023-06-11T00:14:07.875Z,1004.34
2023-06-11T00:15:08.115Z,1004.35
2023-06-11T00:16:07.904Z,1004.37
2023-06-11T00:17:07.840Z,1004.37
2023-06-11T00:18:07.938Z,1004.36
2023-06-11T00:19:07.826Z,1004.35
2023-06-11T00:20:07.824Z,1004.35
2023-06-11T00:21:07.823Z,1004.35
2023-06-11T00:22:07.796Z,1004.34
2023-06-11T00:23:07.805Z,1004.33
2023-06-11T00:24:07.828Z,1004.32
2023-06-11T00:25:07.964Z,1004.31
2023-06-11T00:26:07.767Z,1004.30
2023-06-11T00:27:07.735Z,1004.30
2023-06-11T00:28:07.729Z,1004.29
2023-06-11T00:29:07.719Z,1004.30
2023-06-11T00:30:07.768Z,1004.29
2023-06-11T00:31:07.785Z,1004.29
2023-06-11T00:32:07.783Z,1004.27
2023-06-11T00:33:07.714Z,1004.25
2023-06-11T00:34:07.675Z,1004.24
2023-06-11T00:35:07.928Z,1004.22
2023-06-11T00:36:07.661Z,1004.21
2023-06-11T00:37:07.653Z,1004.19
2023-06-11T00:38:07.626Z,1004.20
2023-06-11T00:39:07.624Z,1004.20
2023-06-11T00:40:07.621Z,1004.20
2023-06-11T00:41:07.741Z,1004.21
2023-06-11T00:42:07.598Z,1004.21
2023-06-11T00:43:07.605Z,1004.24
2023-06-11T00:44:07.591Z,1004.24
2023-06-11T00:45:07.760Z,1004.26
2023-06-11T00:46:07.721Z,1004.26
2023-06-11T00:47:07.556Z,1004.25
2023-06-11T00:48:07.577Z,1004.25
2023-06-11T00:49:07.547Z,1004.25
2023-06-11T00:50:07.496Z,1004.27
2023-06-11T00:51:07.490Z,1004.26
2023-06-11T00:52:07.483Z,1004.28
2023-06-11T00:53:07.474Z,1004.29
2023-06-11T00:54:07.469Z,1004.31
2023-06-11T00:55:07.657Z,1004.32
2023-06-11T00:56:07.422Z,1004.33
2023-06-11T00:57:07.462Z,1004.34
2023-06-11T00:58:07.416Z,1004.34
2023-06-11T00:59:07.417Z,1004.32
2023-06-11T01:00:07.391Z,1004.31
2023-06-11T01:01:07.413Z,1004.30
2023-06-11T01:02:07.377Z,1004.31
2023-06-11T01:03:07.439Z,1004.29
2023-06-11T01:04:07.465Z,1004.29
2023-06-11T01:05:07.476Z,1004.28
2023-06-11T01:06:07.314Z,1004.27
2023-06-11T01:07:07.321Z,1004.27
2023-06-11T01:08:07.306Z,1004.27
2023-06-11T01:09:07.310Z,1004.27
2023-06-11T01:10:07.317Z,1004.28
2023-06-11T01:11:09.602Z,1004.27
2023-06-11T01:12:07.264Z,1004.29
2023-06-11T01:13:07.259Z,1004.29
2023-06-11T01:14:07.278Z,1004.28
2023-06-11T01:15:07.450Z,1004.28
2023-06-11T01:16:07.235Z,1004.28
2023-06-11T01:17:07.284Z,1004.28
2023-06-11T01:18:07.308Z,1004.29
2023-06-11T01:19:07.188Z,1004.29
2023-06-11T01:20:07.271Z,1004.29
2023-06-11T01:21:07.186Z,1004.28
2023-06-11T01:22:07.195Z,1004.26
2023-06-11T01:23:07.168Z,1004.26
2023-06-11T01:24:07.164Z,1004.25
2023-06-11T01:25:07.208Z,1004.25
2023-06-11T01:26:07.128Z,1004.25
2023-06-11T01:27:07.116Z,1004.24
2023-06-11T01:28:07.243Z,1004.25
2023-06-11T01:29:07.108Z,1004.27
2023-06-11T01:30:07.068Z,1004.29
2023-06-11T01:31:07.125Z,1004.28
2023-06-11T01:32:07.177Z,1004.30
2023-06-11T01:33:07.118Z,1004.28
2023-06-11T01:34:07.295Z,1004.27
2023-06-11T01:35:07.318Z,1004.27
2023-06-11T01:36:07.199Z,1004.26
2023-06-11T01:37:07.028Z,1004.26
2023-06-11T01:38:07.256Z,1004.26
2023-06-11T01:39:07.032Z,1004.26
2023-06-11T01:40:06.959Z,1004.27
2023-06-11T01:41:06.959Z,1004.26
2023-06-11T01:42:07.003Z,1004.27
2023-06-11T01:43:06.972Z,1004.24
2023-06-11T01:44:06.924Z,1004.26
2023-06-11T01:45:06.967Z,1004.27
2023-06-11T01:46:06.933Z,1004.26
2023-06-11T01:47:07.007Z,1004.25
2023-06-11T01:49:06.957Z,1004.23
2023-06-11T01:50:06.860Z,1004.25
2023-06-11T01:51:06.891Z,1004.26
2023-06-11T01:52:06.846Z,1004.27
2023-06-11T01:53:07.111Z,1004.28
2023-06-11T01:54:07.132Z,1004.28
2023-06-11T01:55:06.856Z,1004.28
2023-06-11T01:56:06.787Z,1004.29
2023-06-11T01:57:06.877Z,1004.28
2023-06-11T01:58:06.819Z,1004.27
2023-06-11T01:59:06.840Z,1004.27
2023-06-11T02:00:06.846Z,1004.28
2023-06-11T02:01:06.795Z,1004.28
2023-06-11T02:02:06.844Z,1004.29
2023-06-11T02:03:06.983Z,1004.28
2023-06-11T02:04:07.176Z,1004.28
2023-06-11T02:05:06.734Z,1004.28
2023-06-11T02:06:06.718Z,1004.29
2023-06-11T02:07:06.680Z,1004.30
2023-06-11T02:08:06.684Z,1004.30
2023-06-11T02:09:06.714Z,1004.31
2023-06-11T02:10:06.734Z,1004.32
2023-06-11T02:11:06.626Z,1004.31
2023-06-11T02:12:06.617Z,1004.34
2023-06-11T02:13:06.636Z,1004.33
2023-06-11T02:14:06.609Z,1004.33
2023-06-11T02:15:06.617Z,1004.34
2023-06-11T02:16:06.646Z,1004.36
2023-06-11T02:17:06.577Z,1004.35
2023-06-11T02:18:06.601Z,1004.34
2023-06-11T02:19:06.553Z,1004.32
2023-06-11T02:20:06.531Z,1004.31
2023-06-11T02:21:06.557Z,1004.31
2023-06-11T02:22:06.502Z,1004.32
2023-06-11T02:23:06.536Z,1004.33
2023-06-11T02:24:06.565Z,1004.33
2023-06-11T02:25:06.503Z,1004.34
2023-06-11T02:26:06.486Z,1004.33
2023-06-11T02:27:06.495Z,1004.33
2023-06-11T02:28:06.456Z,1004.32
2023-06-11T02:29:06.455Z,1004.30
2023-06-11T02:30:06.445Z,1004.30
2023-06-11T02:31:06.376Z,1004.29
2023-06-11T02:32:06.377Z,1004.28
2023-06-11T02:33:06.449Z,1004.27
2023-06-11T02:34:06.390Z,1004.28
2023-06-11T02:35:06.408Z,1004.27
2023-06-11T02:36:06.395Z,1004.27
2023-06-11T02:37:06.362Z,1004.27
2023-06-11T02:38:06.339Z,1004.26
2023-06-11T02:39:06.338Z,1004.26
2023-06-11T02:40:06.363Z,1004.27
2023-06-11T02:41:06.274Z,1004.26
2023-06-11T02:42:06.257Z,1004.25
2023-06-11T02:43:06.312Z,1004.24
2023-06-11T02:44:06.256Z,1004.24
2023-06-11T02:45:06.217Z,1004.23
2023-06-11T02:46:06.270Z,1004.22
2023-06-11T02:47:06.203Z,1004.20
2023-06-11T02:48:06.347Z,1004.21
2023-06-11T02:49:06.191Z,1004.21
2023-06-11T02:50:06.250Z,1004.21
2023-06-11T02:51:06.170Z,1004.20
2023-06-11T02:52:06.141Z,1004.20
2023-06-11T02:53:06.129Z,1004.19
2023-06-11T02:54:06.127Z,1004.19
2023-06-11T02:55:06.128Z,1004.20
2023-06-11T02:56:06.100Z,1004.21
2023-06-11T02:57:06.100Z,1004.20
2023-06-11T02:58:06.686Z,1004.19
2023-06-11T02:59:06.110Z,1004.19
2023-06-11T03:00:06.094Z,1004.19
2023-06-11T03:01:06.129Z,1004.18
2023-06-11T03:02:06.090Z,1004.18
2023-06-11T03:03:06.314Z,1004.17
2023-06-11T03:04:06.496Z,1004.17
2023-06-11T03:05:06.052Z,1004.16
2023-06-11T03:06:06.002Z,1004.17
2023-06-11T03:07:05.987Z,1004.16
2023-06-11T03:08:05.959Z,1004.18
2023-06-11T03:09:05.966Z,1004.18
2023-06-11T03:10:06.080Z,1004.19
2023-06-11T03:11:05.935Z,1004.20
2023-06-11T03:12:06.100Z,1004.19
2023-06-11T03:13:05.933Z,1004.20
2023-06-11T03:14:05.947Z,1004.20
2023-06-11T03:15:05.912Z,1004.22
2023-06-11T03:16:05.899Z,1004.22
2023-06-11T03:17:05.887Z,1004.23
2023-06-11T03:18:05.913Z,1004.24
2023-06-11T03:19:05.871Z,1004.24
2023-06-11T03:20:05.857Z,1004.23
2023-06-11T03:21:05.851Z,1004.23
2023-06-11T03:22:05.808Z,1004.24
2023-06-11T03:23:05.799Z,1004.25
2023-06-11T03:24:05.814Z,1004.25
2023-06-11T03:25:05.814Z,1004.25
2023-06-11T03:26:05.770Z,1004.25
2023-06-11T03:27:05.795Z,1004.24
2023-06-11T03:28:05.767Z,1004.22
2023-06-11T03:29:05.795Z,1004.21
2023-06-11T03:30:05.882Z,1004.20
2023-06-11T03:31:05.766Z,1004.21
2023-06-11T03:32:05.744Z,1004.21
2023-06-11T03:33:05.741Z,1004.22
2023-06-11T03:34:05.712Z,1004.22
2023-06-11T03:35:05.672Z,1004.22
2023-06-11T03:36:05.673Z,1004.23
2023-06-11T03:37:05.734Z,1004.23
2023-06-11T03:38:05.668Z,1004.24
2023-06-11T03:39:05.630Z,1004.26
2023-06-11T03:40:05.683Z,1004.26
2023-06-11T03:41:05.626Z,1004.27
2023-06-11T03:42:05.596Z,1004.27
2023-06-11T03:43:05.612Z,1004.27
2023-06-11T03:44:05.571Z,1004.25
2023-06-11T03:45:05.589Z,1004.25
2023-06-11T03:46:05.546Z,1004.25
2023-06-11T03:47:05.588Z,1004.25
2023-06-11T03:48:05.696Z,1004.27
2023-06-11T03:49:05.540Z,1004.27
2023-06-11T03:50:05.535Z,1004.28
2023-06-11T03:51:05.501Z,1004.28
2023-06-11T03:52:05.501Z,1004.29
2023-06-11T03:53:05.473Z,1004.29
2023-06-11T03:54:05.561Z,1004.29
2023-06-11T03:55:05.459Z,1004.30
2023-06-11T03:56:05.504Z,1004.29
2023-06-11T03:57:05.455Z,1004.31
2023-06-11T03:58:05.423Z,1004.32
2023-06-11T03:59:05.413Z,1004.33
2023-06-11T04:00:05.401Z,1004.33
2023-06-11T04:01:05.411Z,1004.33
2023-06-11T04:02:05.445Z,1004.35
2023-06-11T04:03:05.452Z,1004.35
2023-06-11T04:04:05.472Z,1004.35
2023-06-11T04:05:05.407Z,1004.35
2023-06-11T04:06:05.356Z,1004.35
2023-06-11T04:07:05.348Z,1004.35
2023-06-11T04:08:05.296Z,1004.34
2023-06-11T04:09:05.308Z,1004.35
2023-06-11T04:10:05.305Z,1004.36
2023-06-11T04:11:05.415Z,1004.35
2023-06-11T04:12:05.304Z,1004.36
2023-06-11T04:13:05.270Z,1004.36
2023-06-11T04:14:05.237Z,1004.36
2023-06-11T04:15:05.259Z,1004.36
2023-06-11T04:16:07.052Z,1004.36
2023-06-11T04:17:05.273Z,1004.35
2023-06-11T04:18:05.254Z,1004.36
2023-06-11T04:19:05.191Z,1004.35
2023-06-11T04:20:05.173Z,1004.35
2023-06-11T04:21:05.196Z,1004.35
2023-06-11T04:22:05.154Z,1004.34
2023-06-11T04:23:05.148Z,1004.33
2023-06-11T04:24:08.287Z,1004.34
2023-06-11T04:25:05.131Z,1004.34
2023-06-11T04:26:05.135Z,1004.34
2023-06-11T04:27:05.132Z,1004.34
2023-06-11T04:28:05.071Z,1004.35
2023-06-11T04:29:05.081Z,1004.36
2023-06-11T04:30:05.089Z,1004.35
2023-06-11T04:31:05.137Z,1004.35
2023-06-11T04:32:05.147Z,1004.35
2023-06-11T04:33:05.127Z,1004.35
2023-06-11T04:34:05.098Z,1004.35
2023-06-11T04:35:05.015Z,1004.36
2023-06-11T04:36:05.005Z,1004.36
2023-06-11T04:37:05.019Z,1004.36
2023-06-11T04:38:05.017Z,1004.36
2023-06-11T04:39:04.981Z,1004.37
2023-06-11T04:40:04.951Z,1004.38
2023-06-11T04:41:04.954Z,1004.37
2023-06-11T04:42:04.961Z,1004.38
2023-06-11T04:43:04.959Z,1004.38
2023-06-11T04:44:04.920Z,1004.37
2023-06-11T04:45:04.923Z,1004.35
2023-06-11T04:46:05.018Z,1004.37
2023-06-11T04:47:04.925Z,1004.38
2023-06-11T04:48:04.973Z,1004.39
2023-06-11T04:49:04.950Z,1004.40
2023-06-11T04:50:04.854Z,1004.41
2023-06-11T04:51:04.840Z,1004.41
2023-06-11T04:52:04.869Z,1004.41
2023-06-11T04:53:04.821Z,1004.41
2023-06-11T04:54:04.891Z,1004.42
2023-06-11T04:55:04.791Z,1004.41
2023-06-11T04:56:05.229Z,1004.40
2023-06-11T04:57:04.789Z,1004.40
2023-06-11T04:58:04.778Z,1004.42
2023-06-11T04:59:04.798Z,1004.42
2023-06-11T05:00:04.746Z,1004.41
2023-06-11T05:01:04.773Z,1004.42
2023-06-11T05:02:04.785Z,1004.42
2023-06-11T05:03:04.822Z,1004.41
2023-06-11T05:04:04.716Z,1004.42
2023-06-11T05:05:04.741Z,1004.42
2023-06-11T05:06:04.710Z,1004.41
2023-06-11T05:07:04.693Z,1004.40
2023-06-11T05:08:04.709Z,1004.40
2023-06-11T05:09:04.663Z,1004.40
2023-06-11T05:10:04.754Z,1004.41
2023-06-11T05:11:04.629Z,1004.43
2023-06-11T05:12:04.632Z,1004.42
2023-06-11T05:13:04.633Z,1004.42
2023-06-11T05:14:04.654Z,1004.44
2023-06-11T05:15:04.596Z,1004.46
2023-06-11T05:16:04.669Z,1004.46
2023-06-11T05:17:04.597Z,1004.45
2023-06-11T05:18:04.618Z,1004.46
2023-06-11T05:19:04.547Z,1004.51
2023-06-11T05:20:04.562Z,1004.53
2023-06-11T05:21:04.533Z,1004.52
2023-06-11T05:22:04.555Z,1004.51
2023-06-11T05:23:04.569Z,1004.50
2023-06-11T05:24:04.538Z,1004.50
2023-06-11T05:25:04.525Z,1004.50
2023-06-11T05:26:04.490Z,1004.52
2023-06-11T05:27:04.458Z,1004.51
2023-06-11T05:28:04.497Z,1004.52
2023-06-11T05:29:04.508Z,1004.51
2023-06-11T05:30:04.474Z,1004.51
2023-06-11T05:31:04.423Z,1004.52
2023-06-11T05:32:04.477Z,1004.51
2023-06-11T05:33:04.408Z,1004.51
2023-06-11T05:34:04.445Z,1004.51
2023-06-11T05:35:04.378Z,1004.51
2023-06-11T05:36:04.375Z,1004.50
2023-06-11T05:37:04.389Z,1004.51
2023-06-11T05:38:04.376Z,1004.51
2023-06-11T05:39:04.363Z,1004.51
2023-06-11T05:40:04.335Z,1004.52
2023-06-11T05:41:04.330Z,1004.53
2023-06-11T05:42:04.425Z,1004.53
2023-06-11T05:43:04.295Z,1004.50
2023-06-11T05:44:04.320Z,1004.50
2023-06-11T05:45:04.309Z,1004.49
2023-06-11T05:46:04.293Z,1004.51
2023-06-11T05:47:04.325Z,1004.50
2023-06-11T05:48:04.272Z,1004.50
2023-06-11T05:49:04.261Z,1004.50
2023-06-11T05:50:04.255Z,1004.50
2023-06-11T05:51:04.186Z,1004.50
2023-06-11T05:52:04.193Z,1004.51
2023-06-11T05:53:04.241Z,1004.51
2023-06-11T05:54:04.176Z,1004.52
2023-06-11T05:55:04.194Z,1004.51
2023-06-11T05:56:04.181Z,1004.51
2023-06-11T05:57:04.146Z,1004.51
2023-06-11T05:58:04.160Z,1004.53
2023-06-11T05:59:04.125Z,1004.55
2023-06-11T06:00:04.120Z,1004.54
2023-06-11T06:01:04.088Z,1004.54
2023-06-11T06:02:04.193Z,1004.54
2023-06-11T06:03:04.196Z,1004.57
2023-06-11T06:04:04.402Z,1004.56
2023-06-11T06:05:04.143Z,1004.61
2023-06-11T06:06:04.077Z,1004.60
2023-06-11T06:07:04.053Z,1004.61
2023-06-11T06:08:04.062Z,1004.60
2023-06-11T06:09:10.023Z,1004.61
2023-06-11T06:10:04.010Z,1004.63
2023-06-11T06:11:04.001Z,1004.64
2023-06-11T06:12:03.977Z,1004.64
2023-06-11T06:13:03.980Z,1004.66
2023-06-11T06:14:03.987Z,1004.68
2023-06-11T06:15:03.953Z,1004.68
2023-06-11T06:16:03.945Z,1004.69
2023-06-11T06:17:03.941Z,1004.70
2023-06-11T06:18:03.973Z,1004.71
2023-06-11T06:19:03.911Z,1004.71
2023-06-11T06:20:04.073Z,1004.72
2023-06-11T06:21:03.909Z,1004.72
2023-06-11T06:22:03.879Z,1004.74
2023-06-11T06:23:03.861Z,1004.74
2023-06-11T06:24:04.026Z,1004.72
2023-06-11T06:25:03.916Z,1004.73
2023-06-11T06:26:03.890Z,1004.73
2023-06-11T06:27:03.829Z,1004.72
2023-06-11T06:28:04.091Z,1004.71
2023-06-11T06:29:03.895Z,1004.69
2023-06-11T06:30:03.874Z,1004.70
2023-06-11T06:31:03.897Z,1004.70
2023-06-11T06:32:03.864Z,1004.69
2023-06-11T06:33:03.952Z,1004.70
2023-06-11T06:34:03.753Z,1004.69
2023-06-11T06:35:03.784Z,1004.69
2023-06-11T06:36:03.728Z,1004.70
2023-06-11T06:37:03.776Z,1004.72
2023-06-11T06:38:03.794Z,1004.72
2023-06-11T06:39:03.754Z,1004.74
2023-06-11T06:40:03.718Z,1004.75
2023-06-11T06:41:03.755Z,1004.75
2023-06-11T06:42:03.698Z,1004.77
2023-06-11T06:43:03.653Z,1004.77
2023-06-11T06:44:03.656Z,1004.78
2023-06-11T06:45:04.040Z,1004.78
2023-06-11T06:46:03.654Z,1004.80
2023-06-11T06:47:03.627Z,1004.82
2023-06-11T06:48:03.700Z,1004.83
2023-06-11T06:49:03.622Z,1004.86
2023-06-11T06:50:03.579Z,1004.86
2023-06-11T06:51:03.610Z,1004.85
2023-06-11T06:52:03.564Z,1004.88
2023-06-11T06:53:03.560Z,1004.88
2023-06-11T06:54:03.547Z,1004.89
2023-06-11T06:55:03.521Z,1004.91
2023-06-11T06:56:03.522Z,1004.93
2023-06-11T06:57:03.544Z,1004.94
2023-06-11T06:58:03.589Z,1004.97
2023-06-11T06:59:03.478Z,1004.97
2023-06-11T07:00:03.586Z,1004.98
2023-06-11T07:01:03.510Z,1004.98
2023-06-11T07:02:03.537Z,1004.98
2023-06-11T07:03:03.573Z,1005.00
2023-06-11T07:04:03.446Z,1004.99
2023-06-11T07:05:03.454Z,1004.98
2023-06-11T07:06:03.454Z,1004.99
2023-06-11T07:07:03.397Z,1004.99
2023-06-11T07:08:03.401Z,1004.99
2023-06-11T07:09:03.375Z,1005.01
2023-06-11T07:10:03.410Z,1005.00
2023-06-11T07:11:03.391Z,1005.02
2023-06-11T07:12:03.381Z,1005.01
2023-06-11T07:13:03.382Z,1005.02
2023-06-11T07:14:03.333Z,1005.03
2023-06-11T07:15:03.321Z,1005.04
2023-06-11T07:16:03.411Z,1005.05
2023-06-11T07:17:03.281Z,1005.06
2023-06-11T07:18:03.362Z,1005.05
2023-06-11T07:19:03.292Z,1005.06
2023-06-11T07:20:03.367Z,1005.07
2023-06-11T07:21:03.282Z,1005.07
2023-06-11T07:22:03.317Z,1005.05
2023-06-11T07:23:03.222Z,1005.07
2023-06-11T07:24:03.284Z,1005.07
2023-06-11T07:25:03.214Z,1005.06
2023-06-11T07:26:03.183Z,1005.03
2023-06-11T07:27:03.247Z,1005.05
2023-06-11T07:28:03.219Z,1005.04
2023-06-11T07:29:03.165Z,1005.05
2023-06-11T07:30:03.193Z,1005.06
2023-06-11T07:31:03.257Z,1005.06
2023-06-11T07:32:03.141Z,1005.05
2023-06-11T07:33:03.183Z,1005.06
2023-06-11T07:34:03.244Z,1005.06
2023-06-11T07:35:03.143Z,1005.06
2023-06-11T07:36:03.098Z,1005.04
2023-06-11T07:37:03.076Z,1005.05
2023-06-11T07:38:03.149Z,1005.05
2023-06-11T07:39:03.070Z,1005.06
2023-06-11T07:40:03.059Z,1005.04
2023-06-11T07:41:03.045Z,1005.05
2023-06-11T07:42:03.025Z,1005.06
2023-06-11T07:43:03.040Z,1005.07
2023-06-11T07:44:03.027Z,1005.07
2023-06-11T07:45:02.989Z,1005.06
2023-06-11T07:46:02.984Z,1005.08
2023-06-11T07:47:03.024Z,1005.10
2023-06-11T07:48:03.057Z,1005.10
2023-06-11T07:49:02.981Z,1005.11
2023-06-11T07:50:02.928Z,1005.10
2023-06-11T07:51:02.931Z,1005.11
2023-06-11T07:52:02.927Z,1005.13
2023-06-11T07:53:03.015Z,1005.14
2023-06-11T07:54:03.125Z,1005.16
2023-06-11T07:55:02.892Z,1005.16
2023-06-11T07:56:02.904Z,1005.15
2023-06-11T07:57:02.874Z,1005.15
2023-06-11T07:58:02.868Z,1005.18
2023-06-11T07:59:02.871Z,1005.17
2023-06-11T08:00:03.129Z,1005.17
2023-06-11T08:01:02.824Z,1005.20
2023-06-11T08:02:02.837Z,1005.19
2023-06-11T08:03:02.890Z,1005.18
2023-06-11T08:04:02.797Z,1005.19
2023-06-11T08:05:03.121Z,1005.19
2023-06-11T08:06:02.843Z,1005.18
2023-06-11T08:07:03.281Z,1005.18
2023-06-11T08:08:02.807Z,1005.21
2023-06-11T08:09:02.737Z,1005.22
2023-06-11T08:10:02.759Z,1005.21
2023-06-11T08:11:02.745Z,1005.19
2023-06-11T08:12:02.718Z,1005.19
2023-06-11T08:13:02.704Z,1005.19
2023-06-11T08:14:02.801Z,1005.20
2023-06-11T08:15:02.697Z,1005.21
2023-06-11T08:16:02.687Z,1005.21
2023-06-11T08:17:02.814Z,1005.24
2023-06-11T08:18:02.700Z,1005.22
2023-06-11T08:19:02.669Z,1005.20
2023-06-11T08:20:02.642Z,1005.20
2023-06-11T08:21:02.782Z,1005.19
2023-06-11T08:22:02.734Z,1005.17
2023-06-11T08:23:02.587Z,1005.21
2023-06-11T08:24:02.863Z,1005.20
2023-06-11T08:25:02.600Z,1005.21
2023-06-11T08:26:02.558Z,1005.18
2023-06-11T08:27:02.638Z,1005.20
2023-06-11T08:28:02.580Z,1005.20
2023-06-11T08:29:02.534Z,1005.19
2023-06-11T08:30:02.521Z,1005.20
2023-06-11T08:31:02.528Z,1005.20
2023-06-11T08:32:02.556Z,1005.19
2023-06-11T08:33:02.515Z,1005.18
2023-06-11T08:34:02.587Z,1005.17
2023-06-11T08:35:02.500Z,1005.16
2023-06-11T08:36:02.499Z,1005.14
2023-06-11T08:37:02.461Z,1005.14
2023-06-11T08:38:02.487Z,1005.16
2023-06-11T08:39:02.515Z,1005.15
2023-06-11T08:40:02.481Z,1005.18
2023-06-11T08:41:02.400Z,1005.16
2023-06-11T08:42:02.411Z,1005.15
2023-06-11T08:43:02.399Z,1005.17
2023-06-11T08:44:02.393Z,1005.16
2023-06-11T08:45:02.352Z,1005.13
2023-06-11T08:46:02.595Z,1005.11
2023-06-11T08:47:02.380Z,1005.13
2023-06-11T08:48:02.638Z,1005.12
2023-06-11T08:49:02.315Z,1005.13
2023-06-11T08:50:02.330Z,1005.09
2023-06-11T08:51:02.303Z,1005.09
2023-06-11T08:52:02.318Z,1005.08
2023-06-11T08:53:02.293Z,1005.08
2023-06-11T08:54:02.267Z,1005.06
2023-06-11T08:55:02.265Z,1005.06
2023-06-11T08:56:05.045Z,1005.04
2023-06-11T08:57:02.226Z,1005.04
2023-06-11T08:58:02.240Z,1005.04
2023-06-11T08:59:02.265Z,1005.08
2023-06-11T09:00:02.210Z,1005.06
2023-06-11T09:01:02.223Z,1005.02
2023-06-11T09:02:02.525Z,1005.05
2023-06-11T09:03:02.196Z,1005.09
2023-06-11T09:04:02.228Z,1005.07
2023-06-11T09:05:02.185Z,1005.06
2023-06-11T09:06:02.164Z,1005.07
2023-06-11T09:07:02.157Z,1005.07
2023-06-11T09:08:02.139Z,1005.06
2023-06-11T09:09:02.155Z,1005.08
2023-06-11T09:10:02.103Z,1005.05
2023-06-11T09:11:02.084Z,1005.04
2023-06-11T09:12:02.090Z,1005.03
2023-06-11T09:13:02.150Z,1005.02
2023-06-11T09:14:02.071Z,1005.01
2023-06-11T09:15:02.082Z,1005.00
2023-06-11T09:16:02.079Z,1005.02
2023-06-11T09:17:02.047Z,1005.03
2023-06-11T09:18:02.056Z,1005.03
2023-06-11T09:19:02.063Z,1005.03
2023-06-11T09:20:05.480Z,1005.02
2023-06-11T09:21:02.121Z,1005.01
2023-06-11T09:22:01.970Z,1004.99
2023-06-11T09:23:01.966Z,1005.00
2023-06-11T09:24:01.977Z,1005.00
2023-06-11T09:25:01.968Z,1004.98
2023-06-11T09:26:01.957Z,1004.96
2023-06-11T09:27:01.933Z,1004.97
2023-06-11T09:28:01.931Z,1004.97
2023-06-11T09:29:01.909Z,1004.97
2023-06-11T09:30:01.954Z,1004.96
2023-06-11T09:31:02.210Z,1005.01
2023-06-11T09:32:01.950Z,1004.99
2023-06-11T09:33:01.923Z,1005.02
2023-06-11T09:34:01.847Z,1005.00
2023-06-11T09:35:01.961Z,1004.99
2023-06-11T09:36:01.863Z,1004.99
2023-06-11T09:37:01.856Z,1005.00
2023-06-11T09:38:01.833Z,1005.03
2023-06-11T09:39:01.834Z,1005.02
2023-06-11T09:40:07.839Z,1005.03
2023-06-11T09:41:01.811Z,1005.00
2023-06-11T09:42:01.790Z,1004.98
2023-06-11T09:43:01.791Z,1005.00
2023-06-11T09:44:01.793Z,1004.99
2023-06-11T09:45:01.839Z,1005.01
2023-06-11T09:46:01.801Z,1005.02
2023-06-11T09:47:03.623Z,1005.04
2023-06-11T09:48:01.755Z,1005.05
2023-06-11T09:49:01.703Z,1005.04
2023-06-11T09:50:01.866Z,1005.09
2023-06-11T09:51:01.681Z,1005.07
2023-06-11T09:52:01.693Z,1005.08
2023-06-11T09:53:01.692Z,1005.07
2023-06-11T09:54:01.658Z,1005.08
2023-06-11T09:55:01.657Z,1005.09
2023-06-11T09:56:10.997Z,1005.11
2023-06-11T09:57:01.621Z,1005.10
2023-06-11T09:58:01.630Z,1005.08
2023-06-11T09:59:01.631Z,1005.07
2023-06-11T10:00:01.572Z,1005.11
2023-06-11T10:01:03.066Z,1005.07
2023-06-11T10:02:01.578Z,1005.06
2023-06-11T10:03:01.698Z,1005.07
2023-06-11T10:04:01.665Z,1005.05
2023-06-11T10:05:01.561Z,1005.08
2023-06-11T10:06:01.530Z,1005.09
2023-06-11T10:07:01.523Z,1005.09
2023-06-11T10:08:01.552Z,1005.08
2023-06-11T10:09:01.511Z,1005.10
2023-06-11T10:10:01.569Z,1005.13
2023-06-11T10:11:01.488Z,1005.11
2023-06-11T10:12:01.490Z,1005.13
2023-06-11T10:13:01.468Z,1005.12
2023-06-11T10:14:01.519Z,1005.08
2023-06-11T10:15:01.457Z,1005.12
2023-06-11T10:16:01.526Z,1005.06
2023-06-11T10:17:01.436Z,1005.03
2023-06-11T10:18:01.452Z,1005.01
2023-06-11T10:19:01.401Z,1005.00
2023-06-11T10:20:01.402Z,1005.01
2023-06-11T10:21:01.381Z,1005.03
2023-06-11T10:22:01.362Z,1005.01
2023-06-11T10:23:01.404Z,1005.06
2023-06-11T10:24:01.382Z,1005.03
2023-06-11T10:25:01.352Z,1005.04
2023-06-11T10:26:01.322Z,1005.04
2023-06-11T10:27:01.386Z,1005.08
2023-06-11T10:28:01.300Z,1005.03
2023-06-11T10:29:01.549Z,1005.03
2023-06-11T10:30:01.272Z,1005.05
2023-06-11T10:31:01.297Z,1005.05
2023-06-11T10:32:01.340Z,1005.02
2023-06-11T10:33:01.384Z,1005.02
2023-06-11T10:34:01.416Z,1005.05
2023-06-11T10:35:01.303Z,1005.08
2023-06-11T10:36:01.215Z,1005.02
2023-06-11T10:37:01.317Z,1005.02
2023-06-11T10:38:01.200Z,1005.03
2023-06-11T10:39:01.190Z,1005.06
2023-06-11T10:40:01.255Z,1005.05
2023-06-11T10:41:01.198Z,1005.05
2023-06-11T10:42:01.568Z,1005.08
2023-06-11T10:43:01.151Z,1005.02
2023-06-11T10:44:01.141Z,1005.02
2023-06-11T10:45:01.250Z,1005.10
2023-06-11T10:46:01.451Z,1005.09
2023-06-11T10:47:01.185Z,1005.03
2023-06-11T10:48:01.186Z,1005.00
2023-06-11T10:49:01.082Z,1004.98
2023-06-11T10:50:01.066Z,1004.95
2023-06-11T10:57:25.609Z,1004.99
2023-06-11T10:59:26.351Z,1005.01
2023-06-11T11:01:33.104Z,1005.00
2023-06-11T11:02:34.074Z,1004.99
2023-06-11T11:03:34.184Z,1004.98
2023-06-11T11:04:34.148Z,1004.99
2023-06-11T11:05:34.078Z,1005.01
2023-06-11T11:06:34.502Z,1004.99
2023-06-11T11:07:33.993Z,1005.00
2023-06-11T11:08:33.986Z,1004.97
2023-06-11T11:09:34.045Z,1004.99
2023-06-11T11:10:34.580Z,1005.05
2023-06-11T11:11:35.150Z,1005.00
2023-06-11T11:12:33.989Z,1004.99
2023-06-11T11:13:34.050Z,1005.02
2023-06-11T11:14:33.936Z,1004.97
2023-06-11T11:15:33.961Z,1004.94
2023-06-11T11:16:35.598Z,1004.88
2023-06-11T11:17:33.906Z,1004.85
2023-06-11T11:18:33.881Z,1004.88
2023-06-11T11:19:33.866Z,1004.86
2023-06-11T11:20:33.847Z,1004.87
2023-06-11T11:21:33.920Z,1004.88
2023-06-11T11:22:33.858Z,1004.84
2023-06-11T11:23:34.000Z,1004.83
2023-06-11T11:24:33.943Z,1004.86
2023-06-11T11:25:33.812Z,1004.81
2023-06-11T11:26:33.813Z,1004.82
2023-06-11T11:27:34.580Z,1004.80
2023-06-11T11:28:35.359Z,1004.77
2023-06-11T11:29:33.852Z,1004.82
2023-06-11T11:30:33.817Z,1004.80
2023-06-11T11:31:34.030Z,1004.80
2023-06-11T11:32:34.697Z,1004.79
2023-06-11T11:33:33.781Z,1004.77
2023-06-11T11:34:33.718Z,1004.78
2023-06-11T11:35:35.104Z,1004.77
2023-06-11T11:36:33.702Z,1004.79
2023-06-11T11:37:33.753Z,1004.75
2023-06-11T11:38:33.696Z,1004.74
2023-06-11T11:39:33.726Z,1004.78
2023-06-11T11:40:33.709Z,1004.78
2023-06-11T11:41:33.633Z,1004.72
2023-06-11T11:42:33.735Z,1004.75
2023-06-11T11:43:33.635Z,1004.72
2023-06-11T11:44:33.617Z,1004.71
2023-06-11T11:45:33.673Z,1004.74
2023-06-11T11:46:33.660Z,1004.72
2023-06-11T11:47:36.418Z,1004.72
2023-06-11T11:48:33.621Z,1004.70
2023-06-11T11:49:33.581Z,1004.71
2023-06-11T11:50:33.552Z,1004.76
2023-06-11T11:51:33.562Z,1004.77
2023-06-11T11:52:33.549Z,1004.77
2023-06-11T11:53:33.576Z,1004.75
2023-06-11T11:54:33.550Z,1004.71
2023-06-11T11:55:34.524Z,1004.73
2023-06-11T11:56:33.583Z,1004.72
2023-06-11T11:57:33.452Z,1004.72
2023-06-11T11:58:35.409Z,1004.71
2023-06-11T11:59:33.588Z,1004.70
2023-06-11T12:00:34.382Z,1004.68
2023-06-11T12:01:33.526Z,1004.70
2023-06-11T12:02:33.477Z,1004.71
2023-06-11T12:03:33.874Z,1004.66
2023-06-11T12:04:33.428Z,1004.64
2023-06-11T12:05:33.520Z,1004.64
2023-06-11T12:06:33.521Z,1004.66
2023-06-11T12:07:33.393Z,1004.66
2023-06-11T12:08:33.367Z,1004.63
2023-06-11T12:09:33.368Z,1004.62
2023-06-11T12:10:33.380Z,1004.71
2023-06-11T12:11:33.380Z,1004.68
2023-06-11T12:12:33.572Z,1004.68
2023-06-11T12:13:33.357Z,1004.68
2023-06-11T12:14:33.482Z,1004.69